Grinnell, Kansas
Current Conditions -  °F | °C
As of 9:15 PM on Tuesday 25 Nov 2014 (Local Time) from KCBK Reporting Station
Light Rain Light Rain  
Wind Chill: 36°   Ceiling: 8000
Heat Index: 41°   Visibility: 10mi
Dew Point: 36°   Wind: 7mph
Humidity: 81%   Direction: 320°NW
Pressure: 29.95"   Gusts: NA
Location:  39.13°N, 100.63°W
Report Text: KCBK 260315Z AUTO 32006KT 10SM -RA SCT048 BKN080 OVC100 05/02 A2995 RMK AO2
Loading
Personal Weather Stations






























Interactive Weather Map New forecast layout! Learn more

10-Day Weather Forecast

Advertisements
Track Severe Weather on mobile